SAS4680 LEMG-ENGM
Flight info
| Callsign | SAS4680 |
|---|---|
| Flight time | 3h 43m |
| Altitude | 38000 |
| Route | BLN N865 VTB N867 BLV P87 BELEN DCT DIDIG UP87 MOKOR UN867 AVANT/N0454F390 DCT DIGSU P144 SAMHO DCT LARGA DCT INBOB DCT BUSOM M604 DANKO DCT PIPEX DCT ULMUG DCT RIPAM |
| Aircraft | B737/M-SDE2E3FGHIRWXY/LB1 |
Departure
| Time | 2026-05-07 18:49 |
|---|---|
| Airport | Málaga-Costa del Sol Airport (LEMG) |
Arrival
| Time | 2026-05-07 22:32 |
|---|---|
| Airport | Oslo-Gardermoen International Airport (ENGM) |
| Time | Latitude | Longitude | Altitude | Speed | Heading |
|---|---|---|---|---|---|
| 2026-05-07 18:16 | 36.67886 | -4.49566 | 39 ft | 0 kts | 133° |
| 2026-05-07 18:39 | 36.67897 | -4.49580 | 41 ft | 4 kts | 133° |
| 2026-05-07 18:39 | 36.67916 | -4.49604 | 39 ft | 4 kts | 136° |
| 2026-05-07 18:40 | 36.67936 | -4.49627 | 41 ft | 4 kts | 141° |
| 2026-05-07 18:40 | 36.67958 | -4.49646 | 39 ft | 4 kts | 159° |
| 2026-05-07 18:40 | 36.67979 | -4.49648 | 38 ft | 2 kts | 212° |
| 2026-05-07 18:40 | 36.67995 | -4.49634 | 41 ft | 0 kts | 221° |
| 2026-05-07 18:43 | 36.67969 | -4.49662 | 41 ft | 12 kts | 220° |
| 2026-05-07 18:43 | 36.67892 | -4.49746 | 39 ft | 15 kts | 224° |
| 2026-05-07 18:43 | 36.67817 | -4.49835 | 41 ft | 15 kts | 223° |
| 2026-05-07 18:44 | 36.67755 | -4.49871 | 41 ft | 9 kts | 185° |
| 2026-05-07 18:44 | 36.67717 | -4.49922 | 42 ft | 9 kts | 280° |
| 2026-05-07 18:44 | 36.67753 | -4.49984 | 43 ft | 9 kts | 316° |
| 2026-05-07 18:44 | 36.67792 | -4.50031 | 42 ft | 15 kts | 316° |
| 2026-05-07 18:45 | 36.67876 | -4.50149 | 41 ft | 19 kts | 310° |
| 2026-05-07 18:45 | 36.67990 | -4.50313 | 43 ft | 18 kts | 312° |
| 2026-05-07 18:45 | 36.68048 | -4.50392 | 43 ft | 18 kts | 312° |
| 2026-05-07 18:45 | 36.68130 | -4.50507 | 43 ft | 17 kts | 311° |
| 2026-05-07 18:46 | 36.68208 | -4.50619 | 43 ft | 17 kts | 311° |
| 2026-05-07 18:46 | 36.68283 | -4.50727 | 43 ft | 16 kts | 310° |
| 2026-05-07 18:46 | 36.68355 | -4.50832 | 48 ft | 16 kts | 310° |
| 2026-05-07 18:46 | 36.68425 | -4.50931 | 48 ft | 15 kts | 311° |
| 2026-05-07 18:47 | 36.68491 | -4.51019 | 51 ft | 10 kts | 308° |
| 2026-05-07 18:47 | 36.68504 | -4.51084 | 50 ft | 7 kts | 259° |
| 2026-05-07 18:47 | 36.68485 | -4.51142 | 51 ft | 7 kts | 246° |
| 2026-05-07 18:47 | 36.68449 | -4.51223 | 57 ft | 11 kts | 218° |
| 2026-05-07 18:48 | 36.68415 | -4.51211 | 60 ft | 0 kts | 125° |
| 2026-05-07 18:48 | 36.68404 | -4.51192 | 57 ft | 14 kts | 128° |
| 2026-05-07 18:48 | 36.68163 | -4.50850 | 56 ft | 92 kts | 132° |
| 2026-05-07 18:49 | 36.67597 | -4.50062 | 54 ft | 154 kts | 130° |
| 2026-05-07 18:49 | 36.66843 | -4.48984 | 535 ft | 173 kts | 133° |
| 2026-05-07 18:49 | 36.65945 | -4.47831 | 1154 ft | 192 kts | 134° |
| 2026-05-07 18:49 | 36.65025 | -4.46611 | 1918 ft | 194 kts | 130° |
| 2026-05-07 18:50 | 36.64089 | -4.45260 | 2483 ft | 221 kts | 130° |
| 2026-05-07 18:50 | 36.63052 | -4.43766 | 3315 ft | 230 kts | 131° |
| 2026-05-07 18:50 | 36.62005 | -4.42274 | 4465 ft | 229 kts | 132° |
| 2026-05-07 18:50 | 36.60946 | -4.40773 | 5492 ft | 233 kts | 133° |
| 2026-05-07 18:51 | 36.59982 | -4.39112 | 6368 ft | 244 kts | 113° |
| 2026-05-07 18:51 | 36.59545 | -4.37001 | 7304 ft | 253 kts | 103° |
| 2026-05-07 18:51 | 36.59198 | -4.34859 | 8155 ft | 260 kts | 102° |
| 2026-05-07 18:51 | 36.58835 | -4.32639 | 9099 ft | 264 kts | 103° |
| 2026-05-07 18:52 | 36.58472 | -4.30373 | 10002 ft | 268 kts | 98° |
| 2026-05-07 18:52 | 36.58650 | -4.28066 | 10852 ft | 276 kts | 68° |
| 2026-05-07 18:52 | 36.59682 | -4.26010 | 11578 ft | 284 kts | 51° |
| 2026-05-07 18:52 | 36.60926 | -4.24073 | 12436 ft | 289 kts | 50° |
| 2026-05-07 18:53 | 36.62195 | -4.22115 | 13287 ft | 294 kts | 47° |
| 2026-05-07 18:53 | 36.63810 | -4.20540 | 13994 ft | 301 kts | 22° |
| 2026-05-07 18:53 | 36.65837 | -4.19539 | 14252 ft | 328 kts | 14° |
| 2026-05-07 18:53 | 36.68117 | -4.18749 | 14486 ft | 353 kts | 9° |
| 2026-05-07 18:54 | 36.70565 | -4.18079 | 15097 ft | 366 kts | 8° |
| 2026-05-07 18:54 | 36.73070 | -4.17440 | 15988 ft | 369 kts | 7° |
| 2026-05-07 18:54 | 36.75608 | -4.16796 | 16882 ft | 373 kts | 7° |
| 2026-05-07 18:54 | 36.78165 | -4.16139 | 17557 ft | 377 kts | 7° |
| 2026-05-07 18:55 | 36.80762 | -4.15461 | 18201 ft | 385 kts | 6° |
| 2026-05-07 18:55 | 36.83358 | -4.14773 | 19060 ft | 388 kts | 6° |
| 2026-05-07 18:55 | 36.85998 | -4.14065 | 19882 ft | 390 kts | 6° |
| 2026-05-07 18:55 | 36.88674 | -4.13343 | 20619 ft | 396 kts | 6° |
| 2026-05-07 18:56 | 36.91376 | -4.12611 | 21354 ft | 400 kts | 6° |
| 2026-05-07 18:56 | 36.94120 | -4.11867 | 22079 ft | 404 kts | 6° |
| 2026-05-07 18:56 | 36.96873 | -4.11117 | 22785 ft | 408 kts | 6° |
| 2026-05-07 18:56 | 36.99660 | -4.10358 | 23434 ft | 412 kts | 6° |
| 2026-05-07 18:57 | 37.02478 | -4.09590 | 24083 ft | 416 kts | 6° |
| 2026-05-07 18:57 | 37.05325 | -4.08813 | 24660 ft | 420 kts | 6° |
| 2026-05-07 18:57 | 37.08186 | -4.08031 | 25284 ft | 423 kts | 6° |
| 2026-05-07 18:57 | 37.11080 | -4.07239 | 25920 ft | 425 kts | 5° |
| 2026-05-07 18:58 | 37.13982 | -4.06444 | 26499 ft | 428 kts | 5° |
| 2026-05-07 18:58 | 37.16900 | -4.05645 | 27071 ft | 431 kts | 5° |
| 2026-05-07 18:58 | 37.19837 | -4.04841 | 27622 ft | 433 kts | 5° |
| 2026-05-07 18:58 | 37.22797 | -4.04029 | 28143 ft | 436 kts | 5° |
| 2026-05-07 18:59 | 37.25768 | -4.03212 | 28682 ft | 438 kts | 5° |
| 2026-05-07 18:59 | 37.28751 | -4.02392 | 29152 ft | 441 kts | 5° |
| 2026-05-07 18:59 | 37.31750 | -4.01569 | 29658 ft | 442 kts | 5° |
| 2026-05-07 18:59 | 37.34767 | -4.00739 | 30154 ft | 444 kts | 5° |
| 2026-05-07 19:00 | 37.37790 | -3.99908 | 30596 ft | 446 kts | 4° |
| 2026-05-07 19:00 | 37.40828 | -3.99071 | 31027 ft | 448 kts | 4° |
| 2026-05-07 19:00 | 37.43864 | -3.98232 | 31529 ft | 447 kts | 4° |
| 2026-05-07 19:00 | 37.46860 | -3.97402 | 32081 ft | 445 kts | 4° |
| 2026-05-07 19:01 | 37.49908 | -3.96555 | 32654 ft | 441 kts | 3° |
| 2026-05-07 19:01 | 37.52898 | -3.95726 | 33173 ft | 439 kts | 2° |
| 2026-05-07 19:01 | 37.55887 | -3.94898 | 33547 ft | 440 kts | 2° |
| 2026-05-07 19:01 | 37.58840 | -3.94084 | 33947 ft | 440 kts | 2° |
| 2026-05-07 19:02 | 37.61825 | -3.93258 | 34392 ft | 438 kts | 2° |
| 2026-05-07 19:02 | 37.64837 | -3.92422 | 34800 ft | 437 kts | 2° |
| 2026-05-07 19:02 | 37.67814 | -3.91597 | 35097 ft | 439 kts | 2° |
| 2026-05-07 19:02 | 37.70804 | -3.90769 | 35370 ft | 441 kts | 2° |
| 2026-05-07 19:03 | 37.73803 | -3.89936 | 35705 ft | 441 kts | 2° |
| 2026-05-07 19:03 | 37.76788 | -3.89104 | 36100 ft | 439 kts | 2° |
| 2026-05-07 19:03 | 37.79773 | -3.88271 | 36377 ft | 440 kts | 2° |
| 2026-05-07 19:03 | 37.82771 | -3.87437 | 36610 ft | 442 kts | 2° |
| 2026-05-07 19:04 | 37.85765 | -3.86601 | 36967 ft | 439 kts | 2° |
| 2026-05-07 19:04 | 37.88726 | -3.85770 | 37491 ft | 432 kts | 2° |
| 2026-05-07 19:04 | 37.91656 | -3.84946 | 37804 ft | 432 kts | 2° |
| 2026-05-07 19:05 | 37.97562 | -3.83302 | 37894 ft | 435 kts | 2° |
| 2026-05-07 19:05 | 38.03480 | -3.81647 | 37905 ft | 435 kts | 3° |
| 2026-05-07 19:06 | 38.09393 | -3.79986 | 37904 ft | 436 kts | 3° |
| 2026-05-07 19:06 | 38.18286 | -3.77485 | 37898 ft | 437 kts | 3° |
| 2026-05-07 19:07 | 38.24221 | -3.75814 | 37904 ft | 437 kts | 3° |
| 2026-05-07 19:07 | 38.30160 | -3.74136 | 37916 ft | 437 kts | 3° |
| 2026-05-07 19:08 | 38.36099 | -3.72456 | 37914 ft | 437 kts | 3° |
| 2026-05-07 19:08 | 38.42046 | -3.70770 | 37917 ft | 438 kts | 3° |
| 2026-05-07 19:09 | 38.48001 | -3.69081 | 37915 ft | 438 kts | 3° |
| 2026-05-07 19:09 | 38.53955 | -3.67389 | 37910 ft | 438 kts | 3° |
| 2026-05-07 19:10 | 38.59907 | -3.65693 | 37914 ft | 438 kts | 4° |
| 2026-05-07 19:10 | 38.65859 | -3.63995 | 37914 ft | 438 kts | 4° |
| 2026-05-07 19:11 | 38.71813 | -3.62294 | 37899 ft | 438 kts | 4° |
| 2026-05-07 19:11 | 38.77758 | -3.60591 | 37910 ft | 437 kts | 4° |
| 2026-05-07 19:12 | 38.83690 | -3.58892 | 37911 ft | 437 kts | 4° |
| 2026-05-07 19:12 | 38.89619 | -3.57189 | 37928 ft | 436 kts | 4° |
| 2026-05-07 19:13 | 38.95536 | -3.55487 | 37919 ft | 436 kts | 4° |
| 2026-05-07 19:13 | 39.01463 | -3.53933 | 37928 ft | 429 kts | 358° |
| 2026-05-07 19:14 | 39.07372 | -3.53312 | 37928 ft | 425 kts | 355° |
| 2026-05-07 19:14 | 39.13268 | -3.52836 | 37939 ft | 425 kts | 355° |
| 2026-05-07 19:15 | 39.19176 | -3.52303 | 37935 ft | 426 kts | 356° |
| 2026-05-07 19:15 | 39.25091 | -3.51724 | 37934 ft | 427 kts | 356° |
| 2026-05-07 19:16 | 39.31008 | -3.51135 | 37935 ft | 427 kts | 356° |
| 2026-05-07 19:16 | 39.36935 | -3.50544 | 37935 ft | 427 kts | 356° |
| 2026-05-07 19:17 | 39.42866 | -3.49953 | 37934 ft | 427 kts | 356° |
| 2026-05-07 19:17 | 39.48799 | -3.49361 | 37937 ft | 428 kts | 356° |
| 2026-05-07 19:18 | 39.54734 | -3.48768 | 37941 ft | 428 kts | 356° |
| 2026-05-07 19:18 | 39.60679 | -3.48170 | 37937 ft | 429 kts | 356° |
| 2026-05-07 19:19 | 39.66624 | -3.47567 | 37934 ft | 429 kts | 356° |
| 2026-05-07 19:19 | 39.72575 | -3.46960 | 37940 ft | 429 kts | 356° |
| 2026-05-07 19:20 | 39.78527 | -3.46338 | 37936 ft | 430 kts | 358° |
| 2026-05-07 19:20 | 39.84480 | -3.45266 | 37948 ft | 433 kts | 1° |
| 2026-05-07 19:21 | 39.90423 | -3.44007 | 37946 ft | 433 kts | 1° |
| 2026-05-07 19:21 | 39.96364 | -3.42770 | 37938 ft | 432 kts | 1° |
| 2026-05-07 19:22 | 40.02307 | -3.41565 | 37940 ft | 432 kts | 1° |
| 2026-05-07 19:22 | 40.08288 | -3.40367 | 37941 ft | 432 kts | 1° |
| 2026-05-07 19:23 | 40.14231 | -3.39173 | 37937 ft | 432 kts | 2° |
| 2026-05-07 19:23 | 40.20175 | -3.37975 | 37952 ft | 433 kts | 2° |
| 2026-05-07 19:24 | 40.26136 | -3.36772 | 37940 ft | 434 kts | 2° |
| 2026-05-07 19:24 | 40.32101 | -3.35569 | 37948 ft | 434 kts | 2° |
| 2026-05-07 19:25 | 40.37070 | -3.34564 | 37942 ft | 435 kts | 2° |
| 2026-05-07 19:25 | 40.43051 | -3.33351 | 37949 ft | 435 kts | 2° |
| 2026-05-07 19:26 | 40.49048 | -3.32132 | 37948 ft | 436 kts | 2° |
| 2026-05-07 19:26 | 40.55044 | -3.30912 | 37942 ft | 437 kts | 2° |
| 2026-05-07 19:27 | 40.61055 | -3.29686 | 37941 ft | 437 kts | 2° |
| 2026-05-07 19:27 | 40.67064 | -3.28459 | 37945 ft | 437 kts | 2° |
| 2026-05-07 19:28 | 40.73084 | -3.27228 | 37936 ft | 438 kts | 3° |
| 2026-05-07 19:28 | 40.79121 | -3.25988 | 37947 ft | 439 kts | 3° |
| 2026-05-07 19:29 | 40.85163 | -3.24749 | 37949 ft | 440 kts | 3° |
| 2026-05-07 19:29 | 40.91219 | -3.23427 | 37949 ft | 442 kts | 4° |
| 2026-05-07 19:30 | 40.97288 | -3.22052 | 37938 ft | 443 kts | 4° |
| 2026-05-07 19:30 | 41.03370 | -3.20688 | 37939 ft | 443 kts | 4° |
| 2026-05-07 19:31 | 41.09456 | -3.19321 | 37944 ft | 444 kts | 4° |
| 2026-05-07 19:31 | 41.15549 | -3.17941 | 37944 ft | 445 kts | 5° |
| 2026-05-07 19:32 | 41.21652 | -3.16556 | 37937 ft | 445 kts | 5° |
| 2026-05-07 19:32 | 41.27764 | -3.15167 | 37947 ft | 446 kts | 5° |
| 2026-05-07 19:33 | 41.33882 | -3.13773 | 37951 ft | 446 kts | 5° |
| 2026-05-07 19:33 | 41.40008 | -3.12377 | 37943 ft | 447 kts | 5° |
| 2026-05-07 19:34 | 41.46142 | -3.10976 | 37944 ft | 448 kts | 5° |
| 2026-05-07 19:34 | 41.52282 | -3.09572 | 37944 ft | 448 kts | 5° |
| 2026-05-07 19:35 | 41.58483 | -3.08172 | 37950 ft | 452 kts | 5° |
| 2026-05-07 19:35 | 41.64755 | -3.06755 | 37947 ft | 461 kts | 5° |
| 2026-05-07 19:36 | 41.71032 | -3.05326 | 37952 ft | 462 kts | 5° |
| 2026-05-07 19:36 | 41.74208 | -3.04625 | 38162 ft | 462 kts | 4° |
| 2026-05-07 19:36 | 41.77384 | -3.04089 | 38535 ft | 457 kts | 2° |
| 2026-05-07 19:37 | 41.80537 | -3.03663 | 38875 ft | 454 kts | 1° |
| 2026-05-07 19:37 | 41.83678 | -3.03276 | 39158 ft | 453 kts | 1° |
| 2026-05-07 19:37 | 41.86861 | -3.02888 | 39357 ft | 454 kts | 1° |
| 2026-05-07 19:37 | 41.89974 | -3.02500 | 39509 ft | 456 kts | 1° |
| 2026-05-07 19:38 | 41.93135 | -3.02091 | 39687 ft | 457 kts | 1° |
| 2026-05-07 19:38 | 41.96299 | -3.01671 | 39895 ft | 457 kts | 2° |
| 2026-05-07 19:38 | 42.02729 | -3.00792 | 39949 ft | 466 kts | 2° |
| 2026-05-07 19:39 | 42.09151 | -2.99901 | 39944 ft | 467 kts | 2° |
| 2026-05-07 19:39 | 42.15647 | -2.98996 | 39941 ft | 466 kts | 2° |
| 2026-05-07 19:40 | 42.22039 | -2.98107 | 39954 ft | 464 kts | 2° |
| 2026-05-07 19:40 | 42.28467 | -2.97211 | 39946 ft | 464 kts | 2° |
| 2026-05-07 19:41 | 42.34901 | -2.96315 | 39936 ft | 464 kts | 2° |
| 2026-05-07 19:41 | 42.41329 | -2.95417 | 39935 ft | 465 kts | 2° |
| 2026-05-07 19:42 | 42.47760 | -2.94516 | 39924 ft | 464 kts | 2° |
| 2026-05-07 19:42 | 42.54182 | -2.93614 | 39926 ft | 464 kts | 2° |
| 2026-05-07 19:43 | 42.60607 | -2.92711 | 39927 ft | 464 kts | 2° |
| 2026-05-07 19:43 | 42.67033 | -2.91807 | 39921 ft | 464 kts | 2° |
| 2026-05-07 19:44 | 42.73463 | -2.90898 | 39922 ft | 465 kts | 2° |
| 2026-05-07 19:44 | 42.79936 | -2.89981 | 39917 ft | 465 kts | 3° |
| 2026-05-07 19:45 | 42.86375 | -2.89069 | 39919 ft | 465 kts | 3° |
| 2026-05-07 19:45 | 42.92805 | -2.88157 | 39919 ft | 466 kts | 3° |
| 2026-05-07 19:46 | 42.99255 | -2.87237 | 39915 ft | 466 kts | 3° |
| 2026-05-07 19:46 | 43.05706 | -2.86316 | 39916 ft | 466 kts | 3° |
| 2026-05-07 19:47 | 43.12151 | -2.85394 | 39913 ft | 465 kts | 3° |
| 2026-05-07 19:47 | 43.18584 | -2.84472 | 39917 ft | 464 kts | 3° |
| 2026-05-07 19:48 | 43.25009 | -2.83550 | 39921 ft | 464 kts | 3° |
| 2026-05-07 19:48 | 43.31431 | -2.82626 | 39912 ft | 464 kts | 3° |
| 2026-05-07 19:49 | 43.37812 | -2.81706 | 39906 ft | 464 kts | 3° |
| 2026-05-07 19:49 | 43.44277 | -2.80773 | 39907 ft | 464 kts | 3° |
| 2026-05-07 19:50 | 43.50647 | -2.79851 | 39915 ft | 463 kts | 3° |
| 2026-05-07 19:50 | 43.57057 | -2.78918 | 39916 ft | 463 kts | 3° |
| 2026-05-07 19:51 | 43.63465 | -2.77987 | 39921 ft | 463 kts | 3° |
| 2026-05-07 19:51 | 43.69928 | -2.77044 | 39920 ft | 464 kts | 3° |
| 2026-05-07 19:52 | 43.76351 | -2.76104 | 39916 ft | 464 kts | 3° |
| 2026-05-07 19:52 | 43.82737 | -2.75172 | 39920 ft | 465 kts | 3° |
| 2026-05-07 19:53 | 43.89169 | -2.74230 | 39914 ft | 465 kts | 3° |
| 2026-05-07 19:53 | 43.95600 | -2.73138 | 39917 ft | 466 kts | 6° |
| 2026-05-07 19:54 | 44.02049 | -2.71669 | 39916 ft | 467 kts | 7° |
| 2026-05-07 19:54 | 44.08416 | -2.70178 | 39907 ft | 467 kts | 7° |
| 2026-05-07 19:55 | 44.14824 | -2.68721 | 39903 ft | 467 kts | 7° |
| 2026-05-07 19:55 | 44.21236 | -2.67291 | 39910 ft | 466 kts | 6° |
| 2026-05-07 19:56 | 44.27636 | -2.65867 | 39911 ft | 466 kts | 6° |
| 2026-05-07 19:56 | 44.34042 | -2.64438 | 39906 ft | 466 kts | 6° |
| 2026-05-07 19:57 | 44.40440 | -2.63009 | 39906 ft | 465 kts | 6° |
| 2026-05-07 19:57 | 44.46877 | -2.61566 | 39907 ft | 465 kts | 6° |
| 2026-05-07 19:58 | 44.53230 | -2.60136 | 39915 ft | 465 kts | 7° |
| 2026-05-07 19:58 | 44.59625 | -2.58694 | 39923 ft | 465 kts | 7° |
| 2026-05-07 19:59 | 44.66062 | -2.57241 | 39929 ft | 465 kts | 6° |
| 2026-05-07 19:59 | 44.72454 | -2.55794 | 39926 ft | 466 kts | 7° |
| 2026-05-07 20:00 | 44.78861 | -2.54343 | 39926 ft | 466 kts | 7° |
| 2026-05-07 20:00 | 44.85263 | -2.52888 | 39926 ft | 466 kts | 7° |
| 2026-05-07 20:01 | 44.91661 | -2.51429 | 39927 ft | 466 kts | 7° |
| 2026-05-07 20:01 | 44.98063 | -2.49968 | 39930 ft | 466 kts | 7° |
| 2026-05-07 20:02 | 45.04462 | -2.48506 | 39936 ft | 466 kts | 7° |
| 2026-05-07 20:02 | 45.10864 | -2.47035 | 39935 ft | 466 kts | 7° |
| 2026-05-07 20:03 | 45.17262 | -2.45564 | 39934 ft | 466 kts | 7° |
| 2026-05-07 20:03 | 45.23666 | -2.44091 | 39936 ft | 466 kts | 7° |
| 2026-05-07 20:04 | 45.28990 | -2.42860 | 39934 ft | 466 kts | 7° |
| 2026-05-07 20:04 | 45.35392 | -2.41378 | 39944 ft | 466 kts | 7° |
| 2026-05-07 20:05 | 45.41796 | -2.39893 | 39944 ft | 467 kts | 7° |
| 2026-05-07 20:05 | 45.48213 | -2.38402 | 39947 ft | 467 kts | 7° |
| 2026-05-07 20:06 | 45.54625 | -2.36906 | 39942 ft | 467 kts | 7° |
| 2026-05-07 20:06 | 45.61034 | -2.35409 | 39948 ft | 467 kts | 7° |
| 2026-05-07 20:07 | 45.67454 | -2.33908 | 39952 ft | 467 kts | 7° |
| 2026-05-07 20:07 | 45.73861 | -2.32404 | 39954 ft | 466 kts | 7° |
| 2026-05-07 20:08 | 45.80263 | -2.30901 | 39950 ft | 466 kts | 7° |
| 2026-05-07 20:08 | 45.86666 | -2.29391 | 39955 ft | 467 kts | 7° |
| 2026-05-07 20:09 | 45.93075 | -2.27877 | 39952 ft | 467 kts | 7° |
| 2026-05-07 20:10 | 46.02705 | -2.25594 | 39967 ft | 468 kts | 7° |
| 2026-05-07 20:10 | 46.09128 | -2.24057 | 39966 ft | 468 kts | 7° |
| 2026-05-07 20:11 | 46.15558 | -2.22490 | 39962 ft | 468 kts | 7° |
| 2026-05-07 20:11 | 46.21980 | -2.20919 | 39976 ft | 469 kts | 7° |
| 2026-05-07 20:12 | 46.28413 | -2.19343 | 39986 ft | 469 kts | 7° |
| 2026-05-07 20:12 | 46.34845 | -2.17765 | 39982 ft | 469 kts | 7° |
| 2026-05-07 20:13 | 46.41274 | -2.16185 | 39984 ft | 469 kts | 7° |
| 2026-05-07 20:13 | 46.47703 | -2.14602 | 39975 ft | 468 kts | 7° |
| 2026-05-07 20:14 | 46.54127 | -2.13016 | 39981 ft | 468 kts | 7° |
| 2026-05-07 20:14 | 46.60552 | -2.11427 | 39989 ft | 468 kts | 7° |
| 2026-05-07 20:15 | 46.66975 | -2.09833 | 39989 ft | 468 kts | 7° |
| 2026-05-07 20:15 | 46.73389 | -2.08234 | 39990 ft | 468 kts | 7° |
| 2026-05-07 20:16 | 46.79805 | -2.06636 | 39992 ft | 468 kts | 7° |
| 2026-05-07 20:16 | 46.86217 | -2.05035 | 39993 ft | 467 kts | 7° |
| 2026-05-07 20:17 | 46.92628 | -2.03428 | 39988 ft | 467 kts | 7° |
| 2026-05-07 20:17 | 46.99036 | -2.01820 | 39991 ft | 467 kts | 7° |
| 2026-05-07 20:18 | 47.05438 | -2.00223 | 39990 ft | 466 kts | 7° |
| 2026-05-07 20:18 | 47.11842 | -1.98642 | 39988 ft | 467 kts | 7° |
| 2026-05-07 20:19 | 47.18250 | -1.97052 | 39994 ft | 467 kts | 7° |
| 2026-05-07 20:19 | 47.24659 | -1.95458 | 39991 ft | 468 kts | 7° |
| 2026-05-07 20:20 | 47.31077 | -1.93856 | 39992 ft | 468 kts | 7° |
| 2026-05-07 20:20 | 47.37364 | -1.91345 | 39987 ft | 472 kts | 23° |
| 2026-05-07 20:21 | 47.43266 | -1.87092 | 39989 ft | 472 kts | 25° |
| 2026-05-07 20:21 | 47.49138 | -1.82722 | 39993 ft | 472 kts | 25° |
| 2026-05-07 20:22 | 47.55024 | -1.78416 | 39993 ft | 472 kts | 25° |
| 2026-05-07 20:22 | 47.60931 | -1.74139 | 39994 ft | 473 kts | 24° |
| 2026-05-07 20:23 | 47.66836 | -1.69860 | 39994 ft | 473 kts | 25° |
| 2026-05-07 20:23 | 47.72743 | -1.65565 | 39993 ft | 473 kts | 25° |
| 2026-05-07 20:24 | 47.78651 | -1.61257 | 39992 ft | 473 kts | 25° |
| 2026-05-07 20:24 | 47.84555 | -1.56938 | 39989 ft | 473 kts | 25° |
| 2026-05-07 20:25 | 47.90457 | -1.52610 | 39990 ft | 473 kts | 25° |
| 2026-05-07 20:25 | 47.96356 | -1.48277 | 39990 ft | 473 kts | 25° |
| 2026-05-07 20:26 | 48.02440 | -1.44682 | 39988 ft | 469 kts | 10° |
| 2026-05-07 20:26 | 48.08859 | -1.43821 | 39994 ft | 463 kts | 355° |
| 2026-05-07 20:27 | 48.15296 | -1.44345 | 39992 ft | 463 kts | 354° |
| 2026-05-07 20:27 | 48.21725 | -1.44915 | 39988 ft | 463 kts | 354° |
| 2026-05-07 20:28 | 48.28163 | -1.45416 | 39993 ft | 463 kts | 354° |
| 2026-05-07 20:28 | 48.34613 | -1.45882 | 39993 ft | 463 kts | 355° |
| 2026-05-07 20:29 | 48.41051 | -1.46339 | 40001 ft | 463 kts | 355° |
| 2026-05-07 20:29 | 48.47489 | -1.46804 | 40000 ft | 463 kts | 355° |
| 2026-05-07 20:30 | 48.53936 | -1.47272 | 40000 ft | 463 kts | 355° |
| 2026-05-07 20:30 | 48.60378 | -1.47740 | 40001 ft | 463 kts | 355° |
| 2026-05-07 20:31 | 48.66817 | -1.48209 | 40000 ft | 463 kts | 355° |
| 2026-05-07 20:31 | 48.73250 | -1.48679 | 40001 ft | 463 kts | 355° |
| 2026-05-07 20:32 | 48.79688 | -1.49150 | 40000 ft | 463 kts | 355° |
| 2026-05-07 20:32 | 48.86131 | -1.49623 | 40004 ft | 463 kts | 355° |
| 2026-05-07 20:33 | 48.92568 | -1.49800 | 40008 ft | 464 kts | 1° |
| 2026-05-07 20:33 | 48.99017 | -1.49027 | 40006 ft | 465 kts | 3° |
| 2026-05-07 20:34 | 49.05460 | -1.48130 | 40013 ft | 465 kts | 3° |
| 2026-05-07 20:34 | 49.11904 | -1.47315 | 40007 ft | 465 kts | 2° |
| 2026-05-07 20:35 | 49.18347 | -1.46549 | 40016 ft | 464 kts | 2° |
| 2026-05-07 20:35 | 49.24787 | -1.45793 | 40018 ft | 464 kts | 2° |
| 2026-05-07 20:36 | 49.31226 | -1.45032 | 40028 ft | 464 kts | 2° |
| 2026-05-07 20:36 | 49.37668 | -1.44266 | 40028 ft | 464 kts | 2° |
| 2026-05-07 20:37 | 49.44105 | -1.43497 | 40017 ft | 464 kts | 2° |
| 2026-05-07 20:37 | 49.50542 | -1.42727 | 40019 ft | 464 kts | 2° |
| 2026-05-07 20:38 | 49.56989 | -1.41954 | 40017 ft | 464 kts | 2° |
| 2026-05-07 20:38 | 49.63430 | -1.41256 | 40019 ft | 464 kts | 1° |
| 2026-05-07 20:39 | 49.69879 | -1.40703 | 40018 ft | 464 kts | 1° |
| 2026-05-07 20:39 | 49.76321 | -1.40148 | 40019 ft | 464 kts | 1° |
| 2026-05-07 20:40 | 49.82768 | -1.39570 | 40021 ft | 464 kts | 1° |
| 2026-05-07 20:40 | 49.89211 | -1.38983 | 40029 ft | 464 kts | 1° |
| 2026-05-07 20:41 | 49.95648 | -1.38397 | 40028 ft | 464 kts | 1° |
| 2026-05-07 20:41 | 50.02089 | -1.37666 | 40045 ft | 464 kts | 5° |
| 2026-05-07 20:42 | 50.08477 | -1.36110 | 40053 ft | 465 kts | 8° |
| 2026-05-07 20:42 | 50.14852 | -1.34387 | 40049 ft | 465 kts | 8° |
| 2026-05-07 20:43 | 50.21246 | -1.32748 | 40053 ft | 465 kts | 7° |
| 2026-05-07 20:43 | 50.27642 | -1.31158 | 40070 ft | 465 kts | 7° |
| 2026-05-07 20:44 | 50.34038 | -1.29571 | 40069 ft | 466 kts | 7° |
| 2026-05-07 20:44 | 50.39361 | -1.28243 | 40072 ft | 466 kts | 7° |
| 2026-05-07 20:45 | 50.45766 | -1.26639 | 40057 ft | 466 kts | 7° |
| 2026-05-07 20:45 | 50.51983 | -1.23787 | 40070 ft | 468 kts | 24° |
| 2026-05-07 20:45 | 50.54837 | -1.21292 | 39934 ft | 471 kts | 31° |
| 2026-05-07 20:46 | 50.57599 | -1.18516 | 39768 ft | 471 kts | 32° |
| 2026-05-07 20:46 | 50.60329 | -1.15694 | 39589 ft | 468 kts | 32° |
| 2026-05-07 20:46 | 50.63044 | -1.12892 | 39415 ft | 467 kts | 32° |
| 2026-05-07 20:46 | 50.65770 | -1.10111 | 39242 ft | 466 kts | 32° |
| 2026-05-07 20:47 | 50.68494 | -1.07364 | 39122 ft | 466 kts | 31° |
| 2026-05-07 20:47 | 50.73966 | -1.01881 | 39081 ft | 465 kts | 31° |
| 2026-05-07 20:48 | 50.79438 | -0.96386 | 39075 ft | 467 kts | 32° |
| 2026-05-07 20:48 | 50.84779 | -0.90529 | 39075 ft | 468 kts | 37° |
| 2026-05-07 20:49 | 50.89847 | -0.84081 | 39072 ft | 470 kts | 39° |
| 2026-05-07 20:49 | 50.94946 | -0.77474 | 39064 ft | 471 kts | 38° |
| 2026-05-07 20:50 | 51.00001 | -0.70982 | 39067 ft | 471 kts | 38° |
| 2026-05-07 20:50 | 51.05139 | -0.64416 | 39061 ft | 470 kts | 38° |
| 2026-05-07 20:51 | 51.10227 | -0.57907 | 39065 ft | 469 kts | 38° |
| 2026-05-07 20:51 | 51.15273 | -0.51431 | 39072 ft | 468 kts | 38° |
| 2026-05-07 20:52 | 51.20368 | -0.44870 | 39070 ft | 468 kts | 38° |
| 2026-05-07 20:52 | 51.25422 | -0.38345 | 39078 ft | 467 kts | 38° |
| 2026-05-07 20:53 | 51.30441 | -0.31847 | 39073 ft | 467 kts | 38° |
| 2026-05-07 20:53 | 51.35485 | -0.25294 | 39068 ft | 467 kts | 39° |
| 2026-05-07 20:54 | 51.40515 | -0.18737 | 39076 ft | 466 kts | 38° |
| 2026-05-07 20:54 | 51.45546 | -0.12163 | 39078 ft | 467 kts | 39° |
| 2026-05-07 20:55 | 51.50569 | -0.05582 | 39073 ft | 467 kts | 39° |
| 2026-05-07 20:55 | 51.55601 | 0.01033 | 39074 ft | 467 kts | 39° |
| 2026-05-07 20:56 | 51.60604 | 0.07628 | 39077 ft | 466 kts | 39° |
| 2026-05-07 20:56 | 51.65611 | 0.14246 | 39078 ft | 466 kts | 39° |
| 2026-05-07 20:57 | 51.70543 | 0.20785 | 39086 ft | 466 kts | 39° |
| 2026-05-07 20:57 | 51.75540 | 0.27433 | 39093 ft | 466 kts | 39° |
| 2026-05-07 20:58 | 51.80562 | 0.34133 | 39100 ft | 465 kts | 39° |
| 2026-05-07 20:58 | 51.85518 | 0.40762 | 39101 ft | 465 kts | 39° |
| 2026-05-07 20:59 | 51.90536 | 0.47496 | 39103 ft | 466 kts | 39° |
| 2026-05-07 20:59 | 51.95517 | 0.54199 | 39103 ft | 466 kts | 39° |
| 2026-05-07 21:00 | 52.00496 | 0.60919 | 39102 ft | 466 kts | 39° |
| 2026-05-07 21:00 | 52.05612 | 0.67360 | 39103 ft | 465 kts | 35° |
| 2026-05-07 21:01 | 52.10941 | 0.73340 | 39103 ft | 465 kts | 34° |
| 2026-05-07 21:01 | 52.16265 | 0.79319 | 39096 ft | 465 kts | 34° |
| 2026-05-07 21:02 | 52.21565 | 0.85377 | 39101 ft | 465 kts | 34° |
| 2026-05-07 21:02 | 52.26850 | 0.91469 | 39106 ft | 465 kts | 34° |
| 2026-05-07 21:03 | 52.32139 | 0.97566 | 39100 ft | 465 kts | 34° |
| 2026-05-07 21:03 | 52.37424 | 1.03684 | 39103 ft | 465 kts | 34° |
| 2026-05-07 21:04 | 52.42701 | 1.09825 | 39100 ft | 465 kts | 35° |
| 2026-05-07 21:04 | 52.47971 | 1.15976 | 39103 ft | 465 kts | 35° |
| 2026-05-07 21:05 | 52.53243 | 1.22144 | 39103 ft | 465 kts | 35° |
| 2026-05-07 21:05 | 52.58514 | 1.28333 | 39101 ft | 466 kts | 35° |
| 2026-05-07 21:06 | 52.63783 | 1.34539 | 39103 ft | 465 kts | 35° |
| 2026-05-07 21:06 | 52.69034 | 1.40743 | 39101 ft | 465 kts | 35° |
| 2026-05-07 21:07 | 52.74296 | 1.46975 | 39100 ft | 465 kts | 35° |
| 2026-05-07 21:07 | 52.79548 | 1.53218 | 39103 ft | 465 kts | 35° |
| 2026-05-07 21:08 | 52.84801 | 1.59480 | 39104 ft | 465 kts | 35° |
| 2026-05-07 21:08 | 52.90053 | 1.65758 | 39101 ft | 466 kts | 35° |
| 2026-05-07 21:09 | 52.95299 | 1.72049 | 39101 ft | 466 kts | 36° |
| 2026-05-07 21:09 | 53.00541 | 1.78356 | 39102 ft | 465 kts | 36° |
| 2026-05-07 21:10 | 53.05781 | 1.84676 | 39103 ft | 465 kts | 36° |
| 2026-05-07 21:10 | 53.11016 | 1.91014 | 39101 ft | 465 kts | 36° |
| 2026-05-07 21:11 | 53.16242 | 1.97363 | 39106 ft | 465 kts | 36° |
| 2026-05-07 21:11 | 53.24070 | 2.06903 | 39113 ft | 464 kts | 36° |
| 2026-05-07 21:12 | 53.29332 | 2.13153 | 39110 ft | 464 kts | 34° |
| 2026-05-07 21:12 | 53.34696 | 2.19149 | 39112 ft | 464 kts | 33° |
| 2026-05-07 21:13 | 53.40058 | 2.25191 | 39112 ft | 464 kts | 34° |
| 2026-05-07 21:13 | 53.45395 | 2.31285 | 39112 ft | 464 kts | 34° |
| 2026-05-07 21:14 | 53.50705 | 2.37470 | 39108 ft | 464 kts | 36° |
| 2026-05-07 21:14 | 53.55875 | 2.43976 | 39122 ft | 464 kts | 37° |
| 2026-05-07 21:15 | 53.61015 | 2.50561 | 39119 ft | 464 kts | 37° |
| 2026-05-07 21:15 | 53.66162 | 2.57125 | 39121 ft | 464 kts | 37° |
| 2026-05-07 21:16 | 53.71320 | 2.63676 | 39127 ft | 464 kts | 37° |
| 2026-05-07 21:16 | 53.76477 | 2.70234 | 39129 ft | 464 kts | 37° |
| 2026-05-07 21:17 | 53.81632 | 2.76811 | 39133 ft | 464 kts | 37° |
| 2026-05-07 21:17 | 53.86780 | 2.83407 | 39130 ft | 464 kts | 37° |
| 2026-05-07 21:18 | 53.91926 | 2.90021 | 39129 ft | 464 kts | 37° |
| 2026-05-07 21:18 | 53.97076 | 2.96660 | 39132 ft | 465 kts | 37° |
| 2026-05-07 21:19 | 54.02222 | 3.03314 | 39132 ft | 464 kts | 37° |
| 2026-05-07 21:19 | 54.07359 | 3.09981 | 39121 ft | 464 kts | 37° |
| 2026-05-07 21:20 | 54.12488 | 3.16658 | 39128 ft | 463 kts | 37° |
| 2026-05-07 21:20 | 54.17604 | 3.23330 | 39128 ft | 462 kts | 37° |
| 2026-05-07 21:21 | 54.22705 | 3.30017 | 39135 ft | 462 kts | 38° |
| 2026-05-07 21:21 | 54.27797 | 3.36713 | 39131 ft | 462 kts | 38° |
| 2026-05-07 21:22 | 54.32888 | 3.43420 | 39132 ft | 462 kts | 38° |
| 2026-05-07 21:22 | 54.37979 | 3.50148 | 39128 ft | 462 kts | 38° |
| 2026-05-07 21:23 | 54.43055 | 3.56885 | 39146 ft | 461 kts | 38° |
| 2026-05-07 21:23 | 54.47306 | 3.62544 | 39133 ft | 461 kts | 38° |
| 2026-05-07 21:24 | 54.52375 | 3.69309 | 39135 ft | 461 kts | 38° |
| 2026-05-07 21:24 | 54.57444 | 3.76101 | 39139 ft | 462 kts | 38° |
| 2026-05-07 21:25 | 54.62511 | 3.82908 | 39138 ft | 462 kts | 38° |
| 2026-05-07 21:25 | 54.67573 | 3.89727 | 39136 ft | 461 kts | 38° |
| 2026-05-07 21:26 | 54.72624 | 3.96560 | 39150 ft | 461 kts | 38° |
| 2026-05-07 21:26 | 54.77675 | 4.03406 | 39156 ft | 460 kts | 38° |
| 2026-05-07 21:27 | 54.82715 | 4.10267 | 39154 ft | 461 kts | 38° |
| 2026-05-07 21:27 | 54.87790 | 4.17048 | 39157 ft | 461 kts | 35° |
| 2026-05-07 21:28 | 54.93155 | 4.23133 | 39161 ft | 460 kts | 32° |
| 2026-05-07 21:28 | 54.98593 | 4.29037 | 39156 ft | 461 kts | 32° |
| 2026-05-07 21:29 | 55.04005 | 4.35026 | 39158 ft | 461 kts | 32° |
| 2026-05-07 21:29 | 55.09396 | 4.41089 | 39158 ft | 461 kts | 33° |
| 2026-05-07 21:30 | 55.14773 | 4.47182 | 39156 ft | 461 kts | 33° |
| 2026-05-07 21:30 | 55.20113 | 4.53250 | 39157 ft | 461 kts | 33° |
| 2026-05-07 21:31 | 55.25497 | 4.59384 | 39154 ft | 461 kts | 33° |
| 2026-05-07 21:31 | 55.30864 | 4.65519 | 39156 ft | 460 kts | 33° |
| 2026-05-07 21:32 | 55.36229 | 4.71671 | 39157 ft | 461 kts | 33° |
| 2026-05-07 21:32 | 55.41590 | 4.77841 | 39159 ft | 460 kts | 33° |
| 2026-05-07 21:33 | 55.46946 | 4.84025 | 39157 ft | 460 kts | 33° |
| 2026-05-07 21:33 | 55.52304 | 4.90231 | 39155 ft | 460 kts | 33° |
| 2026-05-07 21:34 | 55.57649 | 4.96441 | 39160 ft | 460 kts | 33° |
| 2026-05-07 21:34 | 55.62985 | 5.02664 | 39154 ft | 460 kts | 33° |
| 2026-05-07 21:35 | 55.68318 | 5.08904 | 39145 ft | 459 kts | 33° |
| 2026-05-07 21:35 | 55.73634 | 5.15147 | 39149 ft | 458 kts | 33° |
| 2026-05-07 21:36 | 55.78949 | 5.21409 | 39149 ft | 458 kts | 33° |
| 2026-05-07 21:36 | 55.84255 | 5.27682 | 39147 ft | 458 kts | 33° |
| 2026-05-07 21:37 | 55.89556 | 5.33971 | 39148 ft | 458 kts | 34° |
| 2026-05-07 21:37 | 55.94854 | 5.40272 | 39149 ft | 458 kts | 34° |
| 2026-05-07 21:38 | 56.00154 | 5.46593 | 39148 ft | 458 kts | 34° |
| 2026-05-07 21:38 | 56.05452 | 5.52930 | 39142 ft | 458 kts | 34° |
| 2026-05-07 21:39 | 56.10766 | 5.59220 | 39150 ft | 458 kts | 33° |
| 2026-05-07 21:39 | 56.13466 | 5.62322 | 39251 ft | 462 kts | 32° |
| 2026-05-07 21:39 | 56.16169 | 5.65409 | 39545 ft | 460 kts | 32° |
| 2026-05-07 21:40 | 56.18866 | 5.68494 | 39847 ft | 459 kts | 32° |
| 2026-05-07 21:40 | 56.21562 | 5.71590 | 40021 ft | 461 kts | 32° |
| 2026-05-07 21:40 | 56.24271 | 5.74713 | 40165 ft | 463 kts | 32° |
| 2026-05-07 21:40 | 56.26983 | 5.77853 | 40397 ft | 463 kts | 33° |
| 2026-05-07 21:41 | 56.29688 | 5.80993 | 40650 ft | 463 kts | 33° |
| 2026-05-07 21:41 | 56.32393 | 5.84144 | 40845 ft | 464 kts | 32° |
| 2026-05-07 21:41 | 56.35107 | 5.87310 | 41008 ft | 465 kts | 33° |
| 2026-05-07 21:41 | 56.37820 | 5.90480 | 41159 ft | 466 kts | 33° |
| 2026-05-07 21:42 | 56.43293 | 5.96894 | 41167 ft | 469 kts | 33° |
| 2026-05-07 21:42 | 56.48744 | 6.03302 | 41159 ft | 466 kts | 33° |
| 2026-05-07 21:43 | 56.54158 | 6.09689 | 41163 ft | 463 kts | 33° |
| 2026-05-07 21:43 | 56.59546 | 6.16067 | 41166 ft | 462 kts | 33° |
| 2026-05-07 21:44 | 56.64911 | 6.22439 | 41167 ft | 461 kts | 33° |
| 2026-05-07 21:44 | 56.70275 | 6.28833 | 41168 ft | 461 kts | 33° |
| 2026-05-07 21:45 | 56.75643 | 6.35254 | 41171 ft | 462 kts | 33° |
| 2026-05-07 21:45 | 56.81028 | 6.41717 | 41169 ft | 464 kts | 33° |
| 2026-05-07 21:46 | 56.86400 | 6.48186 | 41171 ft | 467 kts | 33° |
| 2026-05-07 21:46 | 56.91865 | 6.54792 | 41168 ft | 469 kts | 33° |
| 2026-05-07 21:47 | 56.97276 | 6.61356 | 41169 ft | 470 kts | 33° |
| 2026-05-07 21:47 | 57.02769 | 6.68043 | 41167 ft | 472 kts | 33° |
| 2026-05-07 21:48 | 57.08235 | 6.74720 | 41165 ft | 472 kts | 33° |
| 2026-05-07 21:48 | 57.13707 | 6.81430 | 41160 ft | 472 kts | 33° |
| 2026-05-07 21:49 | 57.19163 | 6.88144 | 41165 ft | 471 kts | 33° |
| 2026-05-07 21:49 | 57.24607 | 6.94867 | 41167 ft | 471 kts | 33° |
| 2026-05-07 21:50 | 57.30039 | 7.01600 | 41175 ft | 470 kts | 33° |
| 2026-05-07 21:50 | 57.35467 | 7.08353 | 41164 ft | 469 kts | 33° |
| 2026-05-07 21:51 | 57.40877 | 7.15107 | 41165 ft | 469 kts | 33° |
| 2026-05-07 21:51 | 57.46284 | 7.21882 | 41166 ft | 469 kts | 33° |
| 2026-05-07 21:52 | 57.51682 | 7.28671 | 41165 ft | 469 kts | 33° |
| 2026-05-07 21:52 | 57.57081 | 7.35485 | 41174 ft | 469 kts | 33° |
| 2026-05-07 21:53 | 57.62475 | 7.42317 | 41174 ft | 469 kts | 33° |
| 2026-05-07 21:53 | 57.67868 | 7.49174 | 41173 ft | 469 kts | 33° |
| 2026-05-07 21:54 | 57.73265 | 7.56061 | 41179 ft | 470 kts | 33° |
| 2026-05-07 21:54 | 57.78664 | 7.62976 | 41175 ft | 471 kts | 33° |
| 2026-05-07 21:55 | 57.84069 | 7.69924 | 41175 ft | 471 kts | 33° |
| 2026-05-07 21:55 | 57.89471 | 7.76895 | 41175 ft | 471 kts | 33° |
| 2026-05-07 21:56 | 57.94876 | 7.83895 | 41185 ft | 472 kts | 33° |
| 2026-05-07 21:56 | 58.00278 | 7.90918 | 41185 ft | 472 kts | 33° |
| 2026-05-07 21:57 | 58.05682 | 7.97969 | 41185 ft | 472 kts | 33° |
| 2026-05-07 21:57 | 58.11091 | 8.05052 | 41185 ft | 473 kts | 33° |
| 2026-05-07 21:58 | 58.16488 | 8.12148 | 41186 ft | 473 kts | 33° |
| 2026-05-07 21:58 | 58.21888 | 8.19274 | 41183 ft | 473 kts | 33° |
| 2026-05-07 21:59 | 58.27285 | 8.26423 | 41183 ft | 473 kts | 33° |
| 2026-05-07 21:59 | 58.32677 | 8.33592 | 41181 ft | 473 kts | 33° |
| 2026-05-07 22:00 | 58.38056 | 8.40772 | 41184 ft | 473 kts | 34° |
| 2026-05-07 22:00 | 58.43437 | 8.47980 | 41184 ft | 472 kts | 33° |
| 2026-05-07 22:01 | 58.48813 | 8.55211 | 41180 ft | 472 kts | 33° |
| 2026-05-07 22:01 | 58.54182 | 8.62459 | 41181 ft | 472 kts | 33° |
| 2026-05-07 22:02 | 58.59541 | 8.69722 | 41182 ft | 472 kts | 33° |
| 2026-05-07 22:02 | 58.64906 | 8.77021 | 41177 ft | 473 kts | 33° |
| 2026-05-07 22:03 | 58.70265 | 8.84340 | 41175 ft | 473 kts | 33° |
| 2026-05-07 22:03 | 58.75630 | 8.91695 | 41060 ft | 475 kts | 33° |
| 2026-05-07 22:04 | 58.78338 | 8.95418 | 40510 ft | 480 kts | 33° |
| 2026-05-07 22:04 | 58.80134 | 8.97892 | 40149 ft | 478 kts | 33° |
| 2026-05-07 22:04 | 58.82829 | 9.01610 | 39541 ft | 476 kts | 33° |
| 2026-05-07 22:04 | 58.85514 | 9.05334 | 38939 ft | 474 kts | 34° |
| 2026-05-07 22:05 | 58.88129 | 9.09193 | 38304 ft | 472 kts | 36° |
| 2026-05-07 22:05 | 58.90688 | 9.13148 | 37666 ft | 471 kts | 36° |
| 2026-05-07 22:05 | 58.93226 | 9.17132 | 37015 ft | 469 kts | 37° |
| 2026-05-07 22:05 | 58.95757 | 9.21105 | 36353 ft | 467 kts | 36° |
| 2026-05-07 22:06 | 58.98277 | 9.25040 | 35622 ft | 466 kts | 36° |
| 2026-05-07 22:06 | 59.00809 | 9.28973 | 34855 ft | 466 kts | 35° |
| 2026-05-07 22:06 | 59.03344 | 9.32902 | 34068 ft | 466 kts | 35° |
| 2026-05-07 22:06 | 59.05878 | 9.36828 | 33250 ft | 466 kts | 34° |
| 2026-05-07 22:07 | 59.08413 | 9.40766 | 32415 ft | 466 kts | 34° |
| 2026-05-07 22:07 | 59.10945 | 9.44709 | 31536 ft | 467 kts | 34° |
| 2026-05-07 22:07 | 59.13482 | 9.48668 | 30648 ft | 467 kts | 34° |
| 2026-05-07 22:07 | 59.15996 | 9.52600 | 30022 ft | 461 kts | 34° |
| 2026-05-07 22:08 | 59.18480 | 9.56484 | 29353 ft | 454 kts | 33° |
| 2026-05-07 22:08 | 59.21013 | 9.60053 | 28837 ft | 442 kts | 29° |
| 2026-05-07 22:08 | 59.23567 | 9.63305 | 28248 ft | 435 kts | 27° |
| 2026-05-07 22:08 | 59.26071 | 9.66405 | 28131 ft | 417 kts | 27° |
| 2026-05-07 22:09 | 59.28475 | 9.69434 | 27935 ft | 404 kts | 27° |
| 2026-05-07 22:09 | 59.30786 | 9.72399 | 27756 ft | 391 kts | 27° |
| 2026-05-07 22:09 | 59.33058 | 9.75150 | 27552 ft | 375 kts | 19° |
| 2026-05-07 22:09 | 59.35475 | 9.76745 | 27192 ft | 361 kts | 9° |
| 2026-05-07 22:10 | 59.37890 | 9.78030 | 26749 ft | 359 kts | 8° |
| 2026-05-07 22:10 | 59.40290 | 9.79286 | 26328 ft | 355 kts | 8° |
| 2026-05-07 22:10 | 59.42666 | 9.80548 | 25916 ft | 352 kts | 8° |
| 2026-05-07 22:10 | 59.45021 | 9.81822 | 25489 ft | 349 kts | 8° |
| 2026-05-07 22:11 | 59.47349 | 9.83101 | 25079 ft | 346 kts | 9° |
| 2026-05-07 22:11 | 59.49654 | 9.84380 | 24668 ft | 343 kts | 9° |
| 2026-05-07 22:11 | 59.51939 | 9.85653 | 24250 ft | 340 kts | 9° |
| 2026-05-07 22:11 | 59.54203 | 9.86920 | 23843 ft | 337 kts | 9° |
| 2026-05-07 22:12 | 59.56453 | 9.88181 | 23428 ft | 335 kts | 9° |
| 2026-05-07 22:12 | 59.58692 | 9.89438 | 23006 ft | 333 kts | 9° |
| 2026-05-07 22:12 | 59.60901 | 9.90680 | 22598 ft | 330 kts | 9° |
| 2026-05-07 22:12 | 59.63110 | 9.91923 | 22183 ft | 328 kts | 9° |
| 2026-05-07 22:13 | 59.65297 | 9.93156 | 21772 ft | 325 kts | 9° |
| 2026-05-07 22:13 | 59.67467 | 9.94376 | 21378 ft | 323 kts | 9° |
| 2026-05-07 22:13 | 59.69627 | 9.95583 | 20964 ft | 322 kts | 9° |
| 2026-05-07 22:13 | 59.71775 | 9.96782 | 20562 ft | 320 kts | 9° |
| 2026-05-07 22:14 | 59.73912 | 9.97977 | 20148 ft | 318 kts | 9° |
| 2026-05-07 22:14 | 59.76032 | 9.99165 | 19740 ft | 316 kts | 9° |
| 2026-05-07 22:14 | 59.78142 | 10.00346 | 19348 ft | 314 kts | 10° |
| 2026-05-07 22:14 | 59.80255 | 10.01532 | 18940 ft | 318 kts | 10° |
| 2026-05-07 22:15 | 59.82402 | 10.02735 | 18535 ft | 324 kts | 10° |
| 2026-05-07 22:15 | 59.84591 | 10.03966 | 18113 ft | 329 kts | 11° |
| 2026-05-07 22:15 | 59.86785 | 10.05206 | 17675 ft | 327 kts | 11° |
| 2026-05-07 22:15 | 59.88966 | 10.06443 | 17246 ft | 324 kts | 11° |
| 2026-05-07 22:16 | 59.91129 | 10.07668 | 16821 ft | 322 kts | 11° |
| 2026-05-07 22:16 | 59.93277 | 10.08886 | 16400 ft | 320 kts | 12° |
| 2026-05-07 22:16 | 59.95421 | 10.10101 | 15974 ft | 319 kts | 12° |
| 2026-05-07 22:16 | 59.97540 | 10.11317 | 15534 ft | 317 kts | 12° |
| 2026-05-07 22:17 | 59.99656 | 10.12536 | 15123 ft | 314 kts | 12° |
| 2026-05-07 22:17 | 60.01747 | 10.13743 | 14708 ft | 312 kts | 12° |
| 2026-05-07 22:17 | 60.03826 | 10.14941 | 14295 ft | 310 kts | 13° |
| 2026-05-07 22:17 | 60.05887 | 10.16129 | 13886 ft | 307 kts | 13° |
| 2026-05-07 22:18 | 60.07935 | 10.17310 | 13484 ft | 305 kts | 13° |
| 2026-05-07 22:18 | 60.11982 | 10.19649 | 12673 ft | 301 kts | 13° |
| 2026-05-07 22:18 | 60.13990 | 10.20812 | 12278 ft | 298 kts | 14° |
| 2026-05-07 22:19 | 60.15972 | 10.21986 | 11938 ft | 297 kts | 18° |
| 2026-05-07 22:19 | 60.17685 | 10.24298 | 11659 ft | 302 kts | 51° |
| 2026-05-07 22:19 | 60.18896 | 10.27750 | 11455 ft | 303 kts | 56° |
| 2026-05-07 22:19 | 60.20085 | 10.31263 | 11197 ft | 304 kts | 56° |
| 2026-05-07 22:20 | 60.21279 | 10.34772 | 10953 ft | 303 kts | 56° |
| 2026-05-07 22:20 | 60.22469 | 10.38246 | 10700 ft | 301 kts | 56° |
| 2026-05-07 22:20 | 60.23657 | 10.41693 | 10450 ft | 299 kts | 55° |
| 2026-05-07 22:20 | 60.24837 | 10.45108 | 10195 ft | 296 kts | 56° |
| 2026-05-07 22:21 | 60.26013 | 10.48500 | 9941 ft | 294 kts | 55° |
| 2026-05-07 22:21 | 60.27171 | 10.51837 | 9686 ft | 287 kts | 56° |
| 2026-05-07 22:21 | 60.28299 | 10.55087 | 9426 ft | 279 kts | 56° |
| 2026-05-07 22:21 | 60.29401 | 10.58265 | 9172 ft | 274 kts | 56° |
| 2026-05-07 22:22 | 60.30488 | 10.61406 | 8925 ft | 273 kts | 56° |
| 2026-05-07 22:22 | 60.31580 | 10.64564 | 8682 ft | 275 kts | 56° |
| 2026-05-07 22:22 | 60.32669 | 10.67715 | 8430 ft | 272 kts | 56° |
| 2026-05-07 22:22 | 60.33745 | 10.70832 | 8176 ft | 269 kts | 56° |
| 2026-05-07 22:23 | 60.34808 | 10.73913 | 7925 ft | 266 kts | 56° |
| 2026-05-07 22:23 | 60.35857 | 10.76961 | 7673 ft | 264 kts | 56° |
| 2026-05-07 22:23 | 60.36903 | 10.80005 | 7418 ft | 262 kts | 56° |
| 2026-05-07 22:23 | 60.37940 | 10.83026 | 7174 ft | 261 kts | 56° |
| 2026-05-07 22:24 | 60.38976 | 10.86047 | 6926 ft | 261 kts | 56° |
| 2026-05-07 22:24 | 60.40008 | 10.89064 | 6679 ft | 261 kts | 56° |
| 2026-05-07 22:24 | 60.41039 | 10.92079 | 6428 ft | 261 kts | 56° |
| 2026-05-07 22:24 | 60.42070 | 10.95093 | 6181 ft | 261 kts | 56° |
| 2026-05-07 22:25 | 60.43099 | 10.98110 | 5932 ft | 261 kts | 56° |
| 2026-05-07 22:25 | 60.44121 | 11.01112 | 5719 ft | 254 kts | 56° |
| 2026-05-07 22:25 | 60.45095 | 11.03983 | 5650 ft | 242 kts | 58° |
| 2026-05-07 22:25 | 60.45642 | 11.07069 | 5519 ft | 230 kts | 88° |
| 2026-05-07 22:26 | 60.45358 | 11.10134 | 5435 ft | 217 kts | 115° |
| 2026-05-07 22:26 | 60.44526 | 11.12590 | 5234 ft | 209 kts | 135° |
| 2026-05-07 22:26 | 60.43509 | 11.14591 | 5052 ft | 197 kts | 136° |
| 2026-05-07 22:26 | 60.42546 | 11.16461 | 4931 ft | 192 kts | 136° |
| 2026-05-07 22:27 | 60.41578 | 11.18341 | 4609 ft | 189 kts | 136° |
| 2026-05-07 22:27 | 60.40488 | 11.19682 | 4403 ft | 185 kts | 172° |
| 2026-05-07 22:27 | 60.39223 | 11.19305 | 4237 ft | 188 kts | 195° |
| 2026-05-07 22:27 | 60.37946 | 11.18593 | 3976 ft | 190 kts | 195° |
| 2026-05-07 22:28 | 60.36680 | 11.17867 | 3723 ft | 188 kts | 195° |
| 2026-05-07 22:28 | 60.35439 | 11.17153 | 3468 ft | 182 kts | 195° |
| 2026-05-07 22:28 | 60.34241 | 11.16462 | 3223 ft | 176 kts | 195° |
| 2026-05-07 22:28 | 60.33105 | 11.15806 | 2999 ft | 163 kts | 195° |
| 2026-05-07 22:29 | 60.32062 | 11.15203 | 2796 ft | 152 kts | 195° |
| 2026-05-07 22:29 | 60.31059 | 11.14621 | 2602 ft | 149 kts | 195° |
| 2026-05-07 22:29 | 60.30079 | 11.14060 | 2438 ft | 143 kts | 195° |
| 2026-05-07 22:29 | 60.29153 | 11.13524 | 2233 ft | 135 kts | 195° |
| 2026-05-07 22:30 | 60.28256 | 11.13007 | 2051 ft | 133 kts | 195° |
| 2026-05-07 22:30 | 60.27367 | 11.12494 | 1868 ft | 137 kts | 196° |
| 2026-05-07 22:30 | 60.26440 | 11.11958 | 1694 ft | 139 kts | 197° |
| 2026-05-07 22:30 | 60.25514 | 11.11403 | 1498 ft | 139 kts | 198° |
| 2026-05-07 22:31 | 60.24575 | 11.10882 | 1304 ft | 143 kts | 195° |
| 2026-05-07 22:31 | 60.23605 | 11.10311 | 1118 ft | 146 kts | 198° |
| 2026-05-07 22:31 | 60.22636 | 11.09762 | 931 ft | 141 kts | 197° |
| 2026-05-07 22:31 | 60.21705 | 11.09222 | 740 ft | 138 kts | 196° |
| 2026-05-07 22:32 | 60.20818 | 11.08706 | 679 ft | 120 kts | 195° |
| 2026-05-07 22:32 | 60.20257 | 11.08379 | 675 ft | 59 kts | 197° |
| 2026-05-07 22:32 | 60.19944 | 11.08324 | 673 ft | 37 kts | 161° |
| 2026-05-07 22:32 | 60.19867 | 11.08598 | 677 ft | 18 kts | 96° |
| 2026-05-07 22:33 | 60.19910 | 11.08755 | 678 ft | 12 kts | 22° |
| 2026-05-07 22:33 | 60.19985 | 11.08796 | 679 ft | 11 kts | 14° |
| 2026-05-07 22:33 | 60.20060 | 11.08843 | 679 ft | 14 kts | 17° |
| 2026-05-07 22:33 | 60.20105 | 11.09079 | 678 ft | 27 kts | 107° |
| 2026-05-07 22:34 | 60.20056 | 11.09443 | 681 ft | 26 kts | 105° |
| 2026-05-07 22:34 | 60.20010 | 11.09784 | 683 ft | 24 kts | 106° |
| 2026-05-07 22:34 | 60.19958 | 11.10094 | 682 ft | 23 kts | 106° |
| 2026-05-07 22:34 | 60.19916 | 11.10393 | 684 ft | 22 kts | 105° |
| 2026-05-07 22:35 | 60.19843 | 11.10549 | 681 ft | 16 kts | 195° |
| 2026-05-07 22:35 | 60.19736 | 11.10487 | 678 ft | 16 kts | 196° |
| 2026-05-07 22:35 | 60.19632 | 11.10430 | 679 ft | 15 kts | 197° |
| 2026-05-07 22:35 | 60.19546 | 11.10371 | 683 ft | 9 kts | 209° |
| 2026-05-07 22:36 | 60.19526 | 11.10266 | 680 ft | 8 kts | 264° |
| 2026-05-07 22:36 | 60.19523 | 11.10198 | 684 ft | 2 kts | 265° |
| 2026-05-07 22:36 | 60.19521 | 11.10165 | 684 ft | 2 kts | 265° |
| 2026-05-07 22:36 | 60.19520 | 11.10147 | 684 ft | 0 kts | 264° |